Allingtown, Connecticut
Current Conditions -  °F | °C
As of 8:53 AM on Sunday 21 Dec 2014 (Local Time) from KHVN Reporting Station
Overcast Overcast  
Wind Chill: 28°   Ceiling: 1600
Heat Index: 35°   Visibility: 8mi
Dew Point: 30°   Wind: 9mph
Humidity: 82%   Direction: 360°N
Pressure: 30.3"   Gusts: NA
Location:  41.2716°N, 72.9666°W
Report Text: KHVN 211353Z 36008KT 8SM FEW009 OVC016 02/M01 A3030 RMK AO2 SNE12 SLP259 P0000 T00171011
Loading
Personal Weather Stations






























Interactive Weather Map New forecast layout! Learn more

10-Day Weather Forecast

Advertisements
Track Severe Weather on mobile